sensor_id;sensor_type;location;lat;lon;timestamp;temperature;humidity
23827;DHT22;12094;50.822;4.376;2024-02-21T00:02:25;9.50;99.90
23827;DHT22;12094;50.822;4.376;2024-02-21T00:04:58;9.50;99.90
23827;DHT22;12094;50.822;4.376;2024-02-21T00:07:28;9.60;99.90
23827;DHT22;12094;50.822;4.376;2024-02-21T00:09:58;9.60;99.90
23827;DHT22;12094;50.822;4.376;2024-02-21T00:12:28;9.70;99.90
23827;DHT22;12094;50.822;4.376;2024-02-21T00:14:55;9.90;99.90
23827;DHT22;12094;50.822;4.376;2024-02-21T00:17:23;9.90;99.90
23827;DHT22;12094;50.822;4.376;2024-02-21T00:19:50;9.90;99.90
23827;DHT22;12094;50.822;4.376;2024-02-21T00:22:17;9.80;99.90
23827;DHT22;12094;50.822;4.376;2024-02-21T00:24:44;9.80;99.90
23827;DHT22;12094;50.822;4.376;2024-02-21T00:27:11;9.70;99.90
23827;DHT22;12094;50.822;4.376;2024-02-21T00:29:37;9.50;99.90
23827;DHT22;12094;50.822;4.376;2024-02-21T00:32:06;9.60;99.90
23827;DHT22;12094;50.822;4.376;2024-02-21T00:34:32;9.60;99.90
23827;DHT22;12094;50.822;4.376;2024-02-21T00:37:00;9.60;99.90
23827;DHT22;12094;50.822;4.376;2024-02-21T00:39:28;9.60;99.90
23827;DHT22;12094;50.822;4.376;2024-02-21T00:41:56;9.50;99.90
23827;DHT22;12094;50.822;4.376;2024-02-21T00:44:29;9.60;99.90
23827;DHT22;12094;50.822;4.376;2024-02-21T00:46:57;9.50;99.90
23827;DHT22;12094;50.822;4.376;2024-02-21T00:51:56;9.50;99.90
23827;DHT22;12094;50.822;4.376;2024-02-21T00:54:22;9.50;99.90
23827;DHT22;12094;50.822;4.376;2024-02-21T00:56:50;9.50;99.90
23827;DHT22;12094;50.822;4.376;2024-02-21T00:59:18;9.40;99.90
23827;DHT22;12094;50.822;4.376;2024-02-21T01:01:50;9.40;99.90
23827;DHT22;12094;50.822;4.376;2024-02-21T01:04:34;9.30;99.90
23827;DHT22;12094;50.822;4.376;2024-02-21T01:07:04;9.30;99.90
23827;DHT22;12094;50.822;4.376;2024-02-21T01:09:34;9.30;99.90
23827;DHT22;12094;50.822;4.376;2024-02-21T01:12:04;9.30;99.90
23827;DHT22;12094;50.822;4.376;2024-02-21T01:14:32;9.30;99.90
23827;DHT22;12094;50.822;4.376;2024-02-21T01:17:00;9.20;99.90
23827;DHT22;12094;50.822;4.376;2024-02-21T01:19:30;9.20;99.90
23827;DHT22;12094;50.822;4.376;2024-02-21T01:21:58;9.20;99.90
23827;DHT22;12094;50.822;4.376;2024-02-21T01:24:24;9.20;99.90
23827;DHT22;12094;50.822;4.376;2024-02-21T01:26:53;9.20;99.90
23827;DHT22;12094;50.822;4.376;2024-02-21T01:29:20;9.20;99.90
23827;DHT22;12094;50.822;4.376;2024-02-21T01:31:49;9.20;99.90
23827;DHT22;12094;50.822;4.376;2024-02-21T01:34:19;9.20;99.90
23827;DHT22;12094;50.822;4.376;2024-02-21T01:36:48;9.20;99.90
23827;DHT22;12094;50.822;4.376;2024-02-21T01:39:15;9.20;99.90
23827;DHT22;12094;50.822;4.376;2024-02-21T01:41:43;9.20;99.90
23827;DHT22;12094;50.822;4.376;2024-02-21T01:44:13;9.20;99.90
23827;DHT22;12094;50.822;4.376;2024-02-21T01:46:41;9.10;99.90
23827;DHT22;12094;50.822;4.376;2024-02-21T01:49:08;9.10;99.90
23827;DHT22;12094;50.822;4.376;2024-02-21T01:51:36;9.20;99.90
23827;DHT22;12094;50.822;4.376;2024-02-21T01:54:04;9.20;99.90
23827;DHT22;12094;50.822;4.376;2024-02-21T01:59:03;9.20;99.90
23827;DHT22;12094;50.822;4.376;2024-02-21T02:01:30;9.10;99.90
23827;DHT22;12094;50.822;4.376;2024-02-21T02:03:58;9.00;99.90
23827;DHT22;12094;50.822;4.376;2024-02-21T02:06:26;8.90;99.90
23827;DHT22;12094;50.822;4.376;2024-02-21T02:08:56;9.00;99.90
23827;DHT22;12094;50.822;4.376;2024-02-21T02:11:24;9.10;99.90
23827;DHT22;12094;50.822;4.376;2024-02-21T02:13:53;9.10;99.90
23827;DHT22;12094;50.822;4.376;2024-02-21T02:16:22;9.10;99.90
23827;DHT22;12094;50.822;4.376;2024-02-21T02:18:51;9.00;99.90
23827;DHT22;12094;50.822;4.376;2024-02-21T02:21:27;9.00;99.90
23827;DHT22;12094;50.822;4.376;2024-02-21T02:23:56;9.00;99.90
23827;DHT22;12094;50.822;4.376;2024-02-21T02:26:24;9.00;99.90
23827;DHT22;12094;50.822;4.376;2024-02-21T02:28:53;9.00;99.90
23827;DHT22;12094;50.822;4.376;2024-02-21T02:31:21;9.00;99.90
23827;DHT22;12094;50.822;4.376;2024-02-21T02:33:50;9.10;99.90
23827;DHT22;12094;50.822;4.376;2024-02-21T02:36:17;9.10;99.90
23827;DHT22;12094;50.822;4.376;2024-02-21T02:41:50;9.10;99.90
23827;DHT22;12094;50.822;4.376;2024-02-21T02:44:17;9.10;99.90
23827;DHT22;12094;50.822;4.376;2024-02-21T02:46:44;9.10;99.90
23827;DHT22;12094;50.822;4.376;2024-02-21T02:49:11;9.10;99.90
23827;DHT22;12094;50.822;4.376;2024-02-21T02:51:41;9.10;99.90
23827;DHT22;12094;50.822;4.376;2024-02-21T02:54:09;9.20;99.90
23827;DHT22;12094;50.822;4.376;2024-02-21T02:56:36;9.20;99.90
23827;DHT22;12094;50.822;4.376;2024-02-21T02:59:14;9.10;99.90
23827;DHT22;12094;50.822;4.376;2024-02-21T03:01:41;9.10;99.90
23827;DHT22;12094;50.822;4.376;2024-02-21T03:04:11;9.10;99.90
23827;DHT22;12094;50.822;4.376;2024-02-21T03:06:39;9.10;99.90
23827;DHT22;12094;50.822;4.376;2024-02-21T03:09:06;9.10;99.90
23827;DHT22;12094;50.822;4.376;2024-02-21T03:11:35;9.10;99.90
23827;DHT22;12094;50.822;4.376;2024-02-21T03:14:10;9.20;99.90
23827;DHT22;12094;50.822;4.376;2024-02-21T03:16:37;9.20;99.90
23827;DHT22;12094;50.822;4.376;2024-02-21T03:19:05;9.30;99.90
23827;DHT22;12094;50.822;4.376;2024-02-21T03:21:36;9.30;99.90
23827;DHT22;12094;50.822;4.376;2024-02-21T03:24:02;9.40;99.90
23827;DHT22;12094;50.822;4.376;2024-02-21T03:26:33;9.40;99.90
23827;DHT22;12094;50.822;4.376;2024-02-21T03:29:07;9.30;99.90
23827;DHT22;12094;50.822;4.376;2024-02-21T03:31:42;9.30;99.90
23827;DHT22;12094;50.822;4.376;2024-02-21T03:34:11;9.20;99.90
23827;DHT22;12094;50.822;4.376;2024-02-21T03:36:40;9.20;99.90
23827;DHT22;12094;50.822;4.376;2024-02-21T03:41:57;9.20;99.90
23827;DHT22;12094;50.822;4.376;2024-02-21T03:44:24;9.20;99.90
23827;DHT22;12094;50.822;4.376;2024-02-21T03:46:51;9.20;99.90
23827;DHT22;12094;50.822;4.376;2024-02-21T03:49:18;9.20;99.90
23827;DHT22;12094;50.822;4.376;2024-02-21T03:51:47;9.20;99.90
23827;DHT22;12094;50.822;4.376;2024-02-21T03:54:15;9.20;99.90
23827;DHT22;12094;50.822;4.376;2024-02-21T03:56:44;9.20;99.90
23827;DHT22;12094;50.822;4.376;2024-02-21T03:59:11;9.20;99.90
23827;DHT22;12094;50.822;4.376;2024-02-21T04:01:41;9.10;99.90
23827;DHT22;12094;50.822;4.376;2024-02-21T04:06:49;9.00;99.90
23827;DHT22;12094;50.822;4.376;2024-02-21T04:09:18;9.00;99.90
23827;DHT22;12094;50.822;4.376;2024-02-21T04:11:46;9.00;99.90
23827;DHT22;12094;50.822;4.376;2024-02-21T04:14:14;9.00;99.90
23827;DHT22;12094;50.822;4.376;2024-02-21T04:16:41;9.00;99.90
23827;DHT22;12094;50.822;4.376;2024-02-21T04:19:12;9.00;99.90
23827;DHT22;12094;50.822;4.376;2024-02-21T04:21:39;9.00;99.90
23827;DHT22;12094;50.822;4.376;2024-02-21T04:24:07;8.90;99.90
23827;DHT22;12094;50.822;4.376;2024-02-21T04:29:06;8.90;99.90
23827;DHT22;12094;50.822;4.376;2024-02-21T04:31:36;8.90;99.90
23827;DHT22;12094;50.822;4.376;2024-02-21T04:34:05;8.90;99.90
23827;DHT22;12094;50.822;4.376;2024-02-21T04:36:34;8.90;99.90
23827;DHT22;12094;50.822;4.376;2024-02-21T04:39:01;9.00;99.90
23827;DHT22;12094;50.822;4.376;2024-02-21T04:41:30;9.00;99.90
23827;DHT22;12094;50.822;4.376;2024-02-21T04:43:56;9.00;99.90
23827;DHT22;12094;50.822;4.376;2024-02-21T04:46:26;8.90;99.90
23827;DHT22;12094;50.822;4.376;2024-02-21T04:48:54;9.00;99.90
23827;DHT22;12094;50.822;4.376;2024-02-21T04:51:25;8.90;99.90
23827;DHT22;12094;50.822;4.376;2024-02-21T04:53:53;8.90;99.90
23827;DHT22;12094;50.822;4.376;2024-02-21T04:56:24;8.90;99.90
23827;DHT22;12094;50.822;4.376;2024-02-21T05:01:24;9.00;99.90
23827;DHT22;12094;50.822;4.376;2024-02-21T05:03:51;9.00;99.90
23827;DHT22;12094;50.822;4.376;2024-02-21T05:06:19;9.00;99.90
23827;DHT22;12094;50.822;4.376;2024-02-21T05:08:48;9.00;99.90
23827;DHT22;12094;50.822;4.376;2024-02-21T05:11:15;8.90;99.90
23827;DHT22;12094;50.822;4.376;2024-02-21T05:13:42;9.00;99.90
23827;DHT22;12094;50.822;4.376;2024-02-21T05:16:09;8.90;99.90
23827;DHT22;12094;50.822;4.376;2024-02-21T05:18:36;8.90;99.90
23827;DHT22;12094;50.822;4.376;2024-02-21T05:21:03;8.90;99.90
23827;DHT22;12094;50.822;4.376;2024-02-21T05:23:31;8.90;99.90
23827;DHT22;12094;50.822;4.376;2024-02-21T05:25:58;9.00;99.90
23827;DHT22;12094;50.822;4.376;2024-02-21T05:28:26;9.00;99.90
23827;DHT22;12094;50.822;4.376;2024-02-21T05:30:53;8.90;99.90
23827;DHT22;12094;50.822;4.376;2024-02-21T05:33:20;8.90;99.90
23827;DHT22;12094;50.822;4.376;2024-02-21T05:35:50;8.90;99.90
23827;DHT22;12094;50.822;4.376;2024-02-21T05:38:18;8.80;99.90
23827;DHT22;12094;50.822;4.376;2024-02-21T05:40:46;8.90;99.90
23827;DHT22;12094;50.822;4.376;2024-02-21T05:43:14;8.80;99.90
23827;DHT22;12094;50.822;4.376;2024-02-21T05:45:41;8.80;99.90
23827;DHT22;12094;50.822;4.376;2024-02-21T05:48:08;8.80;99.90
23827;DHT22;12094;50.822;4.376;2024-02-21T05:50:37;8.90;99.90
23827;DHT22;12094;50.822;4.376;2024-02-21T05:53:07;8.90;99.90
23827;DHT22;12094;50.822;4.376;2024-02-21T05:55:34;9.00;99.90
23827;DHT22;12094;50.822;4.376;2024-02-21T05:58:01;9.00;99.90
23827;DHT22;12094;50.822;4.376;2024-02-21T06:03:01;8.90;99.90
23827;DHT22;12094;50.822;4.376;2024-02-21T06:05:30;8.90;99.90
23827;DHT22;12094;50.822;4.376;2024-02-21T06:08:00;9.00;99.90
23827;DHT22;12094;50.822;4.376;2024-02-21T06:10:28;9.00;99.90
23827;DHT22;12094;50.822;4.376;2024-02-21T06:12:59;9.00;99.90
23827;DHT22;12094;50.822;4.376;2024-02-21T06:15:29;9.00;99.90
23827;DHT22;12094;50.822;4.376;2024-02-21T06:17:58;9.00;99.90
23827;DHT22;12094;50.822;4.376;2024-02-21T06:20:25;9.00;99.90
23827;DHT22;12094;50.822;4.376;2024-02-21T06:22:52;9.00;99.90
23827;DHT22;12094;50.822;4.376;2024-02-21T06:25:19;9.10;99.90
23827;DHT22;12094;50.822;4.376;2024-02-21T06:27:46;9.10;99.90
23827;DHT22;12094;50.822;4.376;2024-02-21T06:30:14;9.10;99.90
23827;DHT22;12094;50.822;4.376;2024-02-21T06:32:42;9.10;99.90
23827;DHT22;12094;50.822;4.376;2024-02-21T06:35:18;9.10;99.90
23827;DHT22;12094;50.822;4.376;2024-02-21T06:37:49;9.10;99.90
23827;DHT22;12094;50.822;4.376;2024-02-21T06:40:21;9.10;99.90
23827;DHT22;12094;50.822;4.376;2024-02-21T06:42:50;9.10;99.90
23827;DHT22;12094;50.822;4.376;2024-02-21T06:45:23;9.10;99.90
23827;DHT22;12094;50.822;4.376;2024-02-21T06:47:50;9.20;99.90
23827;DHT22;12094;50.822;4.376;2024-02-21T06:50:20;9.20;99.90
23827;DHT22;12094;50.822;4.376;2024-02-21T06:52:47;9.10;99.90
23827;DHT22;12094;50.822;4.376;2024-02-21T06:55:17;9.00;99.90
23827;DHT22;12094;50.822;4.376;2024-02-21T06:57:47;9.00;99.90
23827;DHT22;12094;50.822;4.376;2024-02-21T07:00:16;9.00;99.90
23827;DHT22;12094;50.822;4.376;2024-02-21T07:13:53;8.90;99.90
23827;DHT22;12094;50.822;4.376;2024-02-21T07:16:20;8.80;99.90
23827;DHT22;12094;50.822;4.376;2024-02-21T07:18:48;8.70;99.90
23827;DHT22;12094;50.822;4.376;2024-02-21T07:21:16;8.70;99.90
23827;DHT22;12094;50.822;4.376;2024-02-21T07:23:44;8.70;99.90
23827;DHT22;12094;50.822;4.376;2024-02-21T07:26:12;8.80;99.90
23827;DHT22;12094;50.822;4.376;2024-02-21T07:28:41;8.80;99.90
23827;DHT22;12094;50.822;4.376;2024-02-21T07:31:10;8.80;99.90
23827;DHT22;12094;50.822;4.376;2024-02-21T07:33:38;8.70;99.90
23827;DHT22;12094;50.822;4.376;2024-02-21T07:36:09;8.70;99.90
23827;DHT22;12094;50.822;4.376;2024-02-21T07:38:36;8.80;99.90
23827;DHT22;12094;50.822;4.376;2024-02-21T07:41:04;8.80;99.90
23827;DHT22;12094;50.822;4.376;2024-02-21T07:43:34;8.70;99.90
23827;DHT22;12094;50.822;4.376;2024-02-21T07:46:05;8.70;99.90
23827;DHT22;12094;50.822;4.376;2024-02-21T07:48:36;8.70;99.90
23827;DHT22;12094;50.822;4.376;2024-02-21T07:51:04;8.80;99.90
23827;DHT22;12094;50.822;4.376;2024-02-21T07:53:31;8.80;99.90
23827;DHT22;12094;50.822;4.376;2024-02-21T07:55:58;8.80;99.90
23827;DHT22;12094;50.822;4.376;2024-02-21T07:58:25;8.90;99.90
23827;DHT22;12094;50.822;4.376;2024-02-21T08:00:53;8.90;99.90
23827;DHT22;12094;50.822;4.376;2024-02-21T08:03:22;8.90;99.90
23827;DHT22;12094;50.822;4.376;2024-02-21T08:05:51;8.90;99.90
23827;DHT22;12094;50.822;4.376;2024-02-21T08:08:18;8.90;99.90
23827;DHT22;12094;50.822;4.376;2024-02-21T08:10:49;8.90;99.90
23827;DHT22;12094;50.822;4.376;2024-02-21T08:13:19;8.90;99.90
23827;DHT22;12094;50.822;4.376;2024-02-21T08:15:51;8.90;99.90
23827;DHT22;12094;50.822;4.376;2024-02-21T08:21:27;8.80;99.90
23827;DHT22;12094;50.822;4.376;2024-02-21T08:23:55;8.90;99.90
23827;DHT22;12094;50.822;4.376;2024-02-21T08:26:24;8.90;99.90
23827;DHT22;12094;50.822;4.376;2024-02-21T08:28:57;8.90;99.90
23827;DHT22;12094;50.822;4.376;2024-02-21T08:31:28;8.80;99.90
23827;DHT22;12094;50.822;4.376;2024-02-21T08:34:00;8.90;99.90
23827;DHT22;12094;50.822;4.376;2024-02-21T08:36:34;8.90;99.90
23827;DHT22;12094;50.822;4.376;2024-02-21T08:39:02;9.00;99.90
23827;DHT22;12094;50.822;4.376;2024-02-21T08:41:35;9.00;99.90
23827;DHT22;12094;50.822;4.376;2024-02-21T08:44:27;9.00;99.90
23827;DHT22;12094;50.822;4.376;2024-02-21T08:49:31;9.10;99.90
23827;DHT22;12094;50.822;4.376;2024-02-21T08:52:02;9.00;99.90
23827;DHT22;12094;50.822;4.376;2024-02-21T08:54:32;9.00;99.90
23827;DHT22;12094;50.822;4.376;2024-02-21T08:59:33;9.00;99.90
23827;DHT22;12094;50.822;4.376;2024-02-21T09:02:04;9.10;99.90
23827;DHT22;12094;50.822;4.376;2024-02-21T09:04:34;9.20;99.90
23827;DHT22;12094;50.822;4.376;2024-02-21T09:07:02;9.10;99.90
23827;DHT22;12094;50.822;4.376;2024-02-21T09:09:31;9.20;99.90
23827;DHT22;12094;50.822;4.376;2024-02-21T09:12:00;9.20;99.90
23827;DHT22;12094;50.822;4.376;2024-02-21T09:14:34;9.20;99.90
23827;DHT22;12094;50.822;4.376;2024-02-21T09:17:03;9.20;99.90
23827;DHT22;12094;50.822;4.376;2024-02-21T09:19:44;9.30;99.90
23827;DHT22;12094;50.822;4.376;2024-02-21T09:26:13;9.30;99.90
23827;DHT22;12094;50.822;4.376;2024-02-21T09:28:48;9.40;99.90
23827;DHT22;12094;50.822;4.376;2024-02-21T09:31:22;9.40;99.90
23827;DHT22;12094;50.822;4.376;2024-02-21T09:33:52;9.40;99.90
23827;DHT22;12094;50.822;4.376;2024-02-21T09:36:22;9.40;99.90
23827;DHT22;12094;50.822;4.376;2024-02-21T09:38:50;9.50;99.90
23827;DHT22;12094;50.822;4.376;2024-02-21T09:41:30;9.50;99.90
23827;DHT22;12094;50.822;4.376;2024-02-21T09:43:57;9.60;99.90
23827;DHT22;12094;50.822;4.376;2024-02-21T09:47:01;9.60;99.90
23827;DHT22;12094;50.822;4.376;2024-02-21T09:49:35;9.60;99.90
23827;DHT22;12094;50.822;4.376;2024-02-21T09:52:09;9.70;99.90
23827;DHT22;12094;50.822;4.376;2024-02-21T09:54:48;9.70;99.90
23827;DHT22;12094;50.822;4.376;2024-02-21T09:57:18;9.80;99.90
23827;DHT22;12094;50.822;4.376;2024-02-21T09:59:47;9.90;99.90
23827;DHT22;12094;50.822;4.376;2024-02-21T10:02:14;9.90;99.90
23827;DHT22;12094;50.822;4.376;2024-02-21T10:04:46;9.90;99.90
23827;DHT22;12094;50.822;4.376;2024-02-21T10:07:16;9.90;99.90
23827;DHT22;12094;50.822;4.376;2024-02-21T10:09:59;9.90;99.90
23827;DHT22;12094;50.822;4.376;2024-02-21T10:12:32;9.90;99.90
23827;DHT22;12094;50.822;4.376;2024-02-21T10:15:03;9.90;99.90
23827;DHT22;12094;50.822;4.376;2024-02-21T10:17:32;10.00;99.90
23827;DHT22;12094;50.822;4.376;2024-02-21T10:20:15;10.00;99.90
23827;DHT22;12094;50.822;4.376;2024-02-21T10:22:44;10.00;99.90
23827;DHT22;12094;50.822;4.376;2024-02-21T10:25:12;10.00;99.90
23827;DHT22;12094;50.822;4.376;2024-02-21T10:30:13;10.20;99.90
23827;DHT22;12094;50.822;4.376;2024-02-21T10:32:52;10.30;99.90
23827;DHT22;12094;50.822;4.376;2024-02-21T10:35:31;10.30;99.90
23827;DHT22;12094;50.822;4.376;2024-02-21T10:38:12;10.20;99.90
23827;DHT22;12094;50.822;4.376;2024-02-21T10:40:43;10.20;99.90
23827;DHT22;12094;50.822;4.376;2024-02-21T10:43:14;10.20;99.90
23827;DHT22;12094;50.822;4.376;2024-02-21T10:45:56;10.20;99.90
23827;DHT22;12094;50.822;4.376;2024-02-21T10:48:29;10.20;99.90
23827;DHT22;12094;50.822;4.376;2024-02-21T10:51:18;10.10;99.90
23827;DHT22;12094;50.822;4.376;2024-02-21T10:53:53;10.20;99.90
23827;DHT22;12094;50.822;4.376;2024-02-21T10:56:28;10.30;99.90
23827;DHT22;12094;50.822;4.376;2024-02-21T10:59:00;10.40;99.90
23827;DHT22;12094;50.822;4.376;2024-02-21T11:01:40;10.30;99.90
23827;DHT22;12094;50.822;4.376;2024-02-21T11:04:12;10.30;99.90
23827;DHT22;12094;50.822;4.376;2024-02-21T11:06:54;10.30;99.90
23827;DHT22;12094;50.822;4.376;2024-02-21T11:09:32;10.30;99.90
23827;DHT22;12094;50.822;4.376;2024-02-21T11:12:04;10.30;99.90
23827;DHT22;12094;50.822;4.376;2024-02-21T11:14:34;10.30;99.90
23827;DHT22;12094;50.822;4.376;2024-02-21T11:17:19;10.20;99.90
23827;DHT22;12094;50.822;4.376;2024-02-21T11:19:48;10.20;99.90
23827;DHT22;12094;50.822;4.376;2024-02-21T11:22:16;10.20;99.90
23827;DHT22;12094;50.822;4.376;2024-02-21T11:24:44;10.20;99.90
23827;DHT22;12094;50.822;4.376;2024-02-21T11:27:12;10.10;99.90
23827;DHT22;12094;50.822;4.376;2024-02-21T11:29:40;10.10;99.90
23827;DHT22;12094;50.822;4.376;2024-02-21T11:32:10;10.10;99.90
23827;DHT22;12094;50.822;4.376;2024-02-21T11:34:40;10.10;99.90
23827;DHT22;12094;50.822;4.376;2024-02-21T11:37:14;10.10;99.90
23827;DHT22;12094;50.822;4.376;2024-02-21T11:39:44;10.10;99.90
23827;DHT22;12094;50.822;4.376;2024-02-21T11:42:13;10.10;99.90
23827;DHT22;12094;50.822;4.376;2024-02-21T11:44:42;10.10;99.90
23827;DHT22;12094;50.822;4.376;2024-02-21T11:47:09;10.10;99.90
23827;DHT22;12094;50.822;4.376;2024-02-21T11:49:46;10.00;99.90
23827;DHT22;12094;50.822;4.376;2024-02-21T11:52:16;10.00;99.90
23827;DHT22;12094;50.822;4.376;2024-02-21T11:54:47;9.90;99.90
23827;DHT22;12094;50.822;4.376;2024-02-21T11:57:14;9.90;99.90
23827;DHT22;12094;50.822;4.376;2024-02-21T11:59:44;10.00;99.90
23827;DHT22;12094;50.822;4.376;2024-02-21T12:02:11;10.00;99.90
23827;DHT22;12094;50.822;4.376;2024-02-21T12:04:39;10.10;99.90
23827;DHT22;12094;50.822;4.376;2024-02-21T12:07:09;10.00;99.90
23827;DHT22;12094;50.822;4.376;2024-02-21T12:09:36;10.00;99.90
23827;DHT22;12094;50.822;4.376;2024-02-21T12:12:04;10.00;99.90
23827;DHT22;12094;50.822;4.376;2024-02-21T12:14:33;10.00;99.90
23827;DHT22;12094;50.822;4.376;2024-02-21T12:17:03;10.00;99.90
23827;DHT22;12094;50.822;4.376;2024-02-21T12:19:34;10.00;99.90
23827;DHT22;12094;50.822;4.376;2024-02-21T12:22:01;10.10;99.90
23827;DHT22;12094;50.822;4.376;2024-02-21T12:24:33;10.00;99.90
23827;DHT22;12094;50.822;4.376;2024-02-21T12:27:01;9.90;99.90
23827;DHT22;12094;50.822;4.376;2024-02-21T12:29:30;9.90;99.90
23827;DHT22;12094;50.822;4.376;2024-02-21T12:31:57;10.00;99.90
23827;DHT22;12094;50.822;4.376;2024-02-21T12:34:24;10.00;99.90
23827;DHT22;12094;50.822;4.376;2024-02-21T12:37:10;10.10;99.90
23827;DHT22;12094;50.822;4.376;2024-02-21T12:39:38;10.10;99.90
23827;DHT22;12094;50.822;4.376;2024-02-21T12:42:07;10.00;99.90
23827;DHT22;12094;50.822;4.376;2024-02-21T12:44:35;10.00;99.90
23827;DHT22;12094;50.822;4.376;2024-02-21T12:47:02;10.10;99.90
23827;DHT22;12094;50.822;4.376;2024-02-21T12:49:29;10.00;99.90
23827;DHT22;12094;50.822;4.376;2024-02-21T12:51:58;10.10;99.90
23827;DHT22;12094;50.822;4.376;2024-02-21T12:54:26;10.10;99.90
23827;DHT22;12094;50.822;4.376;2024-02-21T12:56:53;10.20;99.90
23827;DHT22;12094;50.822;4.376;2024-02-21T12:59:21;10.20;99.90
23827;DHT22;12094;50.822;4.376;2024-02-21T13:01:49;10.30;99.90
23827;DHT22;12094;50.822;4.376;2024-02-21T13:04:19;10.20;99.90
23827;DHT22;12094;50.822;4.376;2024-02-21T13:06:46;10.20;99.90
23827;DHT22;12094;50.822;4.376;2024-02-21T13:09:17;10.20;99.90
23827;DHT22;12094;50.822;4.376;2024-02-21T13:11:45;10.20;99.90
23827;DHT22;12094;50.822;4.376;2024-02-21T13:14:14;10.40;99.90
23827;DHT22;12094;50.822;4.376;2024-02-21T13:16:41;10.30;99.90
23827;DHT22;12094;50.822;4.376;2024-02-21T13:19:08;10.40;99.90
23827;DHT22;12094;50.822;4.376;2024-02-21T13:21:36;10.40;99.90
23827;DHT22;12094;50.822;4.376;2024-02-21T13:24:04;10.40;99.90
23827;DHT22;12094;50.822;4.376;2024-02-21T13:26:31;10.30;99.90
23827;DHT22;12094;50.822;4.376;2024-02-21T13:28:59;10.40;99.90
23827;DHT22;12094;50.822;4.376;2024-02-21T13:31:26;10.40;99.90
23827;DHT22;12094;50.822;4.376;2024-02-21T13:36:59;10.30;99.90
23827;DHT22;12094;50.822;4.376;2024-02-21T13:39:26;10.30;99.90
23827;DHT22;12094;50.822;4.376;2024-02-21T13:42:02;10.30;99.90
23827;DHT22;12094;50.822;4.376;2024-02-21T13:44:34;10.20;99.90
23827;DHT22;12094;50.822;4.376;2024-02-21T13:47:01;10.20;99.90
23827;DHT22;12094;50.822;4.376;2024-02-21T13:49:30;10.20;99.90
23827;DHT22;12094;50.822;4.376;2024-02-21T13:51:59;10.20;99.90
23827;DHT22;12094;50.822;4.376;2024-02-21T13:54:27;10.20;99.90
23827;DHT22;12094;50.822;4.376;2024-02-21T13:56:55;10.00;99.90
23827;DHT22;12094;50.822;4.376;2024-02-21T13:59:22;10.00;99.90
23827;DHT22;12094;50.822;4.376;2024-02-21T14:01:49;10.00;99.90
23827;DHT22;12094;50.822;4.376;2024-02-21T14:04:16;10.00;99.90
23827;DHT22;12094;50.822;4.376;2024-02-21T14:06:43;10.00;99.90
23827;DHT22;12094;50.822;4.376;2024-02-21T14:09:16;10.00;99.90
23827;DHT22;12094;50.822;4.376;2024-02-21T14:11:44;9.90;99.90
23827;DHT22;12094;50.822;4.376;2024-02-21T14:14:12;9.90;99.90
23827;DHT22;12094;50.822;4.376;2024-02-21T14:16:43;9.90;99.90
23827;DHT22;12094;50.822;4.376;2024-02-21T14:19:10;9.80;99.90
23827;DHT22;12094;50.822;4.376;2024-02-21T14:21:38;9.90;99.90
23827;DHT22;12094;50.822;4.376;2024-02-21T14:24:05;9.90;99.90
23827;DHT22;12094;50.822;4.376;2024-02-21T14:26:35;9.80;99.90
23827;DHT22;12094;50.822;4.376;2024-02-21T14:29:04;9.80;99.90
23827;DHT22;12094;50.822;4.376;2024-02-21T14:31:31;9.90;99.90
23827;DHT22;12094;50.822;4.376;2024-02-21T14:34:01;9.90;99.90
23827;DHT22;12094;50.822;4.376;2024-02-21T14:36:30;9.80;99.90
23827;DHT22;12094;50.822;4.376;2024-02-21T14:38:58;9.80;99.90
23827;DHT22;12094;50.822;4.376;2024-02-21T14:41:27;9.90;99.90
23827;DHT22;12094;50.822;4.376;2024-02-21T14:43:56;9.80;99.90
23827;DHT22;12094;50.822;4.376;2024-02-21T14:46:31;9.70;99.90
23827;DHT22;12094;50.822;4.376;2024-02-21T14:49:00;9.70;99.90
23827;DHT22;12094;50.822;4.376;2024-02-21T14:51:28;9.70;99.90
23827;DHT22;12094;50.822;4.376;2024-02-21T14:53:58;9.70;99.90
23827;DHT22;12094;50.822;4.376;2024-02-21T14:56:25;9.70;99.90
23827;DHT22;12094;50.822;4.376;2024-02-21T14:58:56;9.70;99.90
23827;DHT22;12094;50.822;4.376;2024-02-21T15:01:37;9.70;99.90
23827;DHT22;12094;50.822;4.376;2024-02-21T15:04:07;9.70;99.90
23827;DHT22;12094;50.822;4.376;2024-02-21T15:06:34;9.70;99.90
23827;DHT22;12094;50.822;4.376;2024-02-21T15:09:08;9.70;99.90
23827;DHT22;12094;50.822;4.376;2024-02-21T15:11:36;9.60;99.90
23827;DHT22;12094;50.822;4.376;2024-02-21T15:14:03;9.60;99.90
23827;DHT22;12094;50.822;4.376;2024-02-21T15:16:31;9.60;99.90
23827;DHT22;12094;50.822;4.376;2024-02-21T15:19:01;9.60;99.90
23827;DHT22;12094;50.822;4.376;2024-02-21T15:21:30;9.60;99.90
23827;DHT22;12094;50.822;4.376;2024-02-21T15:23:57;9.50;99.90
23827;DHT22;12094;50.822;4.376;2024-02-21T15:26:25;9.50;99.90
23827;DHT22;12094;50.822;4.376;2024-02-21T15:28:52;9.50;99.90
23827;DHT22;12094;50.822;4.376;2024-02-21T15:31:24;9.50;99.90
23827;DHT22;12094;50.822;4.376;2024-02-21T15:33:51;9.50;99.90
23827;DHT22;12094;50.822;4.376;2024-02-21T15:36:19;9.50;99.90
23827;DHT22;12094;50.822;4.376;2024-02-21T15:38:47;9.40;99.90
23827;DHT22;12094;50.822;4.376;2024-02-21T15:41:17;9.40;99.90
23827;DHT22;12094;50.822;4.376;2024-02-21T15:43:48;9.40;99.90
23827;DHT22;12094;50.822;4.376;2024-02-21T15:46:15;9.40;99.90
23827;DHT22;12094;50.822;4.376;2024-02-21T15:48:42;9.40;99.90
23827;DHT22;12094;50.822;4.376;2024-02-21T15:51:11;9.40;99.90
23827;DHT22;12094;50.822;4.376;2024-02-21T15:53:39;9.40;99.90
23827;DHT22;12094;50.822;4.376;2024-02-21T15:56:14;9.40;99.90
23827;DHT22;12094;50.822;4.376;2024-02-21T15:58:44;9.30;99.90
23827;DHT22;12094;50.822;4.376;2024-02-21T16:01:13;9.30;99.90
23827;DHT22;12094;50.822;4.376;2024-02-21T16:03:41;9.20;99.90
23827;DHT22;12094;50.822;4.376;2024-02-21T16:06:14;9.20;99.90
23827;DHT22;12094;50.822;4.376;2024-02-21T16:08:45;9.20;99.90
23827;DHT22;12094;50.822;4.376;2024-02-21T16:11:17;9.30;99.90
23827;DHT22;12094;50.822;4.376;2024-02-21T16:13:48;9.30;99.90
23827;DHT22;12094;50.822;4.376;2024-02-21T16:16:20;9.30;99.90
23827;DHT22;12094;50.822;4.376;2024-02-21T16:18:56;9.30;99.90
23827;DHT22;12094;50.822;4.376;2024-02-21T16:27:20;9.30;99.90
23827;DHT22;12094;50.822;4.376;2024-02-21T16:29:49;9.40;99.90
23827;DHT22;12094;50.822;4.376;2024-02-21T16:32:16;9.40;99.90
23827;DHT22;12094;50.822;4.376;2024-02-21T16:34:49;9.30;99.90
23827;DHT22;12094;50.822;4.376;2024-02-21T16:37:22;9.40;99.90
23827;DHT22;12094;50.822;4.376;2024-02-21T16:39:52;9.30;99.90
23827;DHT22;12094;50.822;4.376;2024-02-21T16:42:28;9.30;99.90
23827;DHT22;12094;50.822;4.376;2024-02-21T16:44:59;9.30;99.90
23827;DHT22;12094;50.822;4.376;2024-02-21T16:47:27;9.30;99.90
23827;DHT22;12094;50.822;4.376;2024-02-21T16:52:49;9.30;99.90
23827;DHT22;12094;50.822;4.376;2024-02-21T16:55:17;9.30;99.90
23827;DHT22;12094;50.822;4.376;2024-02-21T17:00:56;9.30;99.90